Time;durP1;ratioP1;P1;durP2;ratioP2;P2;SDS_P1;SDS_P2;PMS_P1;PMS_P2;Temp;Humidity;BMP_temperature;BMP_pressure;BME280_temperature;BME280_humidity;BME280_pressure;Samples;Min_cycle;Max_cycle;Signal;HPM_P1;HPM_P2
2024/02/27 00:00:20;;;;;;;17.10;11.63;;;5.20;99.90;;;;;;5034463;28;20205;-64
2024/02/27 00:02:47;;;;;;;14.57;11.15;;;5.20;99.90;;;;;;5034870;28;20231;-64
2024/02/27 00:05:14;;;;;;;13.43;10.05;;;5.20;99.90;;;;;;5034304;28;20277;-65
2024/02/27 00:07:41;;;;;;;16.92;10.88;;;5.10;99.90;;;;;;5034510;28;20302;-65
2024/02/27 00:10:14;;;;;;;13.75;10.27;;;5.10;99.90;;;;;;5034688;28;20239;-65
2024/02/27 00:12:40;;;;;;;13.48;9.73;;;5.10;99.90;;;;;;5034273;28;20716;-64
2024/02/27 00:15:08;;;;;;;14.55;9.55;;;5.10;99.90;;;;;;5034103;28;20695;-65
2024/02/27 00:17:35;;;;;;;12.85;9.50;;;5.10;99.90;;;;;;5034284;28;20230;-64
2024/02/27 00:20:03;;;;;;;13.95;9.85;;;5.10;99.90;;;;;;5034329;28;20199;-65
2024/02/27 00:22:30;;;;;;;12.40;9.63;;;5.10;99.90;;;;;;5034464;28;20222;-64
2024/02/27 00:24:56;;;;;;;16.00;10.48;;;5.10;99.90;;;;;;5034744;28;20206;-65
2024/02/27 00:27:25;;;;;;;14.32;10.18;;;5.00;99.90;;;;;;5035369;28;20214;-64
2024/02/27 00:29:51;;;;;;;15.48;10.13;;;5.00;99.90;;;;;;5038651;28;20215;-65
2024/02/27 00:32:18;;;;;;;13.98;10.27;;;5.00;99.90;;;;;;5039354;28;20221;-64
2024/02/27 00:34:45;;;;;;;12.00;9.85;;;4.90;99.90;;;;;;5040177;28;20206;-64
2024/02/27 00:37:11;;;;;;;17.88;10.82;;;4.90;99.90;;;;;;5039157;28;20697;-65
2024/02/27 00:39:38;;;;;;;13.38;9.77;;;4.90;99.90;;;;;;5038211;28;20687;-65
2024/02/27 00:42:05;;;;;;;14.40;10.55;;;4.90;99.90;;;;;;5038097;28;20227;-64
2024/02/27 00:44:33;;;;;;;12.63;9.20;;;4.90;99.90;;;;;;5038277;28;20213;-64
2024/02/27 00:47:00;;;;;;;13.35;9.10;;;4.90;99.90;;;;;;5037760;28;20717;-65
2024/02/27 00:49:26;;;;;;;10.85;9.00;;;4.90;99.90;;;;;;5038081;28;20618;-65
2024/02/27 00:51:53;;;;;;;12.95;10.52;;;4.80;99.90;;;;;;5037823;28;20205;-66
2024/02/27 00:54:20;;;;;;;13.00;9.40;;;4.80;99.90;;;;;;5037895;28;20203;-64
2024/02/27 00:56:47;;;;;;;15.35;10.82;;;4.80;99.90;;;;;;5037906;28;20561;-66
2024/02/27 00:59:13;;;;;;;14.07;10.30;;;4.80;99.90;;;;;;5037414;28;20223;-65
2024/02/27 01:01:41;;;;;;;15.95;10.82;;;4.70;99.90;;;;;;5038084;28;20204;-65
2024/02/27 01:04:08;;;;;;;14.82;10.27;;;4.70;99.90;;;;;;5037575;28;20228;-64
2024/02/27 01:06:35;;;;;;;15.65;11.00;;;4.60;99.90;;;;;;5037813;28;20204;-66
2024/02/27 01:09:02;;;;;;;15.77;10.80;;;4.60;99.90;;;;;;5037901;28;20574;-65
2024/02/27 01:11:28;;;;;;;13.43;9.13;;;4.50;99.90;;;;;;5037664;28;20230;-65
2024/02/27 01:13:55;;;;;;;13.15;9.50;;;4.40;99.90;;;;;;5036999;28;20230;-65
2024/02/27 01:16:23;;;;;;;15.52;10.60;;;4.30;99.90;;;;;;5037090;28;20209;-64
2024/02/27 01:18:51;;;;;;;13.20;9.40;;;4.20;99.90;;;;;;5037227;28;20793;-65
2024/02/27 01:21:18;;;;;;;15.98;10.55;;;4.20;99.90;;;;;;5037370;28;20569;-64
2024/02/27 01:23:45;;;;;;;14.80;10.35;;;4.10;99.90;;;;;;5036953;28;20237;-64
2024/02/27 01:26:12;;;;;;;11.60;9.23;;;4.00;99.90;;;;;;5037003;28;20298;-63
2024/02/27 01:28:38;;;;;;;14.88;11.32;;;4.00;99.90;;;;;;5037958;28;20199;-64
2024/02/27 01:31:05;;;;;;;16.50;10.30;;;3.90;99.90;;;;;;5037735;28;20556;-64
2024/02/27 01:33:32;;;;;;;16.02;11.13;;;3.90;99.90;;;;;;5037378;28;20233;-64
2024/02/27 01:36:00;;;;;;;14.23;10.32;;;3.90;99.90;;;;;;5037294;28;20683;-64
2024/02/27 01:38:27;;;;;;;15.02;9.77;;;3.80;99.90;;;;;;5036350;28;20716;-64
2024/02/27 01:40:54;;;;;;;15.68;10.73;;;3.80;99.90;;;;;;5036677;28;20203;-65
2024/02/27 01:43:24;;;;;;;16.80;10.88;;;3.70;99.90;;;;;;5037258;28;20223;-65
2024/02/27 01:45:52;;;;;;;17.33;11.75;;;3.70;99.90;;;;;;5036855;28;20704;-64
2024/02/27 01:48:20;;;;;;;15.50;10.70;;;3.60;99.90;;;;;;5037323;28;20621;-64
2024/02/27 01:50:46;;;;;;;15.20;11.38;;;3.50;99.90;;;;;;5036583;28;20688;-64
2024/02/27 01:53:15;;;;;;;16.98;11.00;;;3.50;99.90;;;;;;5037081;28;20233;-65
2024/02/27 01:55:43;;;;;;;17.83;10.98;;;3.40;99.90;;;;;;5036974;28;20579;-65
2024/02/27 01:58:11;;;;;;;17.95;11.88;;;3.40;99.90;;;;;;5036707;28;20218;-64
2024/02/27 02:00:38;;;;;;;18.30;10.93;;;3.30;99.90;;;;;;5036248;28;20676;-65
2024/02/27 02:03:06;;;;;;;18.25;12.32;;;3.30;99.90;;;;;;5036536;28;20245;-65
2024/02/27 02:05:33;;;;;;;20.25;12.10;;;3.20;99.90;;;;;;5036890;28;20213;-64
2024/02/27 02:08:02;;;;;;;19.92;12.93;;;3.10;99.90;;;;;;5036365;28;20577;-64
2024/02/27 02:10:30;;;;;;;22.73;14.85;;;3.10;99.90;;;;;;5036607;28;20199;-63
2024/02/27 02:12:57;;;;;;;19.67;12.90;;;3.10;99.90;;;;;;5036058;28;20230;-65
2024/02/27 02:15:24;;;;;;;21.23;12.95;;;3.00;99.90;;;;;;5036406;28;20211;-63
2024/02/27 02:17:52;;;;;;;21.17;12.43;;;3.00;99.90;;;;;;5036209;28;20215;-65
2024/02/27 02:20:20;;;;;;;20.73;14.10;;;3.00;99.90;;;;;;5036724;28;20206;-64
2024/02/27 02:22:47;;;;;;;21.02;14.15;;;3.00;99.90;;;;;;5036434;28;20222;-63
2024/02/27 02:25:16;;;;;;;20.17;13.50;;;3.00;99.90;;;;;;5036490;28;20202;-64
2024/02/27 02:27:44;;;;;;;21.00;14.38;;;3.00;99.90;;;;;;5036233;28;20269;-63
2024/02/27 02:30:12;;;;;;;21.27;13.50;;;3.00;99.90;;;;;;5036084;28;20202;-64
2024/02/27 02:32:47;;;;;;;27.90;15.10;;;3.10;99.90;;;;;;5036497;28;20280;-65
2024/02/27 02:35:14;;;;;;;24.00;15.15;;;3.10;99.90;;;;;;5036409;28;20244;-64
2024/02/27 02:37:47;;;;;;;21.83;14.10;;;3.10;99.90;;;;;;5035819;28;20699;-63
2024/02/27 02:40:14;;;;;;;25.13;14.57;;;3.10;99.90;;;;;;5035912;28;20222;-64
2024/02/27 02:42:41;;;;;;;24.13;14.60;;;3.20;99.90;;;;;;5037535;28;20246;-63
2024/02/27 02:45:08;;;;;;;23.17;14.30;;;3.10;99.90;;;;;;5037014;28;20199;-63
2024/02/27 02:47:35;;;;;;;26.35;15.52;;;3.10;99.90;;;;;;5036433;28;20638;-64
2024/02/27 02:50:02;;;;;;;24.27;14.27;;;3.10;99.90;;;;;;5035503;28;20588;-64
2024/02/27 02:52:29;;;;;;;26.70;15.20;;;3.10;99.90;;;;;;5034292;28;20219;-64
2024/02/27 02:54:57;;;;;;;26.27;14.60;;;3.10;99.90;;;;;;5035947;28;20197;-65
2024/02/27 02:57:24;;;;;;;23.45;15.27;;;3.10;99.90;;;;;;5035371;28;20202;-63
2024/02/27 02:59:51;;;;;;;27.27;16.25;;;3.10;99.90;;;;;;5034880;28;20218;-64
2024/02/27 03:02:17;;;;;;;26.98;15.70;;;3.10;99.90;;;;;;5034426;28;20238;-64
2024/02/27 03:04:44;;;;;;;25.00;15.60;;;3.10;99.90;;;;;;5035202;28;20206;-64
2024/02/27 03:07:11;;;;;;;23.73;14.75;;;3.10;99.90;;;;;;5035156;28;20564;-63
2024/02/27 03:09:38;;;;;;;28.27;15.48;;;3.10;99.90;;;;;;5035470;28;20199;-64
2024/02/27 03:14:33;;;;;;;26.63;15.57;;;3.20;99.90;;;;;;5078939;22;20233;-63
2024/02/27 03:17:00;;;;;;;27.25;16.13;;;3.10;99.90;;;;;;5058600;28;20205;-62
2024/02/27 03:19:27;;;;;;;23.20;14.15;;;3.10;99.90;;;;;;5056382;28;20232;-63
2024/02/27 03:21:55;;;;;;;28.35;15.27;;;3.10;99.90;;;;;;5055284;28;20292;-64
2024/02/27 03:24:22;;;;;;;22.50;12.85;;;3.10;99.90;;;;;;5055385;28;20221;-63
2024/02/27 03:26:49;;;;;;;24.35;16.65;;;3.10;99.90;;;;;;5055895;28;20210;-63
2024/02/27 03:29:15;;;;;;;23.25;14.45;;;3.10;99.90;;;;;;5055622;28;20193;-63
2024/02/27 03:31:43;;;;;;;26.95;15.50;;;3.10;99.90;;;;;;5055466;28;20228;-63
2024/02/27 03:34:10;;;;;;;25.00;14.13;;;3.10;99.90;;;;;;5056331;28;20287;-63
2024/02/27 03:36:40;;;;;;;24.20;15.25;;;3.10;99.90;;;;;;5056787;28;20202;-63
2024/02/27 03:39:06;;;;;;;23.20;15.10;;;3.20;99.90;;;;;;5056068;28;20221;-63
2024/02/27 03:41:33;;;;;;;23.92;15.15;;;3.20;99.90;;;;;;5055699;28;20202;-62
2024/02/27 03:44:01;;;;;;;21.98;12.52;;;3.20;99.90;;;;;;5056486;28;20223;-63
2024/02/27 03:46:27;;;;;;;25.45;14.15;;;3.20;99.90;;;;;;5056433;28;20232;-63
2024/02/27 03:48:56;;;;;;;23.90;14.52;;;3.20;99.90;;;;;;5058011;28;20201;-62
2024/02/27 03:51:22;;;;;;;25.05;14.88;;;3.20;99.90;;;;;;5059133;28;20206;-63
2024/02/27 03:53:49;;;;;;;23.85;14.65;;;3.20;99.90;;;;;;5064488;28;20225;-63
2024/02/27 03:56:16;;;;;;;24.58;15.25;;;3.20;99.90;;;;;;5067223;28;20209;-63
2024/02/27 03:58:42;;;;;;;27.17;15.77;;;3.20;99.90;;;;;;5064937;28;20222;-62
2024/02/27 04:01:09;;;;;;;23.02;13.90;;;3.20;99.90;;;;;;5064161;28;20212;-64
2024/02/27 04:03:36;;;;;;;25.33;15.70;;;3.20;99.90;;;;;;5059525;28;20224;-63
2024/02/27 04:06:05;;;;;;;30.27;16.38;;;3.20;99.90;;;;;;5055541;28;20590;-63
2024/02/27 04:08:32;;;;;;;29.38;15.02;;;3.20;99.90;;;;;;5055430;28;20202;-64
2024/02/27 04:13:15;;;;;;;22.67;15.30;;;3.20;99.90;;;;;;5092762;28;20566;-63
2024/02/27 04:15:44;;;;;;;24.38;15.20;;;3.20;99.90;;;;;;5091542;28;20227;-63
2024/02/27 04:18:11;;;;;;;27.23;16.02;;;3.20;99.90;;;;;;5092155;28;20291;-63
2024/02/27 04:20:38;;;;;;;23.55;14.02;;;3.20;99.90;;;;;;5091651;28;20204;-63
2024/02/27 04:23:04;;;;;;;26.48;15.27;;;3.20;99.90;;;;;;5091951;28;20771;-63
2024/02/27 04:25:31;;;;;;;19.77;13.00;;;3.20;99.90;;;;;;5102286;22;20229;-64
2024/02/27 04:27:58;;;;;;;23.95;14.20;;;3.30;99.90;;;;;;5072252;28;20259;-62
2024/02/27 04:30:26;;;;;;;22.30;15.02;;;3.30;99.90;;;;;;5074888;28;20315;-64
2024/02/27 04:32:53;;;;;;;24.58;15.25;;;3.30;99.90;;;;;;5079576;28;20221;-65
2024/02/27 04:35:20;;;;;;;24.40;14.68;;;3.30;99.90;;;;;;5079948;28;20279;-64
2024/02/27 04:37:46;;;;;;;25.00;14.90;;;3.30;99.90;;;;;;5079292;28;20202;-65
2024/02/27 04:40:13;;;;;;;21.17;14.18;;;3.40;99.90;;;;;;5079404;28;20325;-64
2024/02/27 04:42:40;;;;;;;21.00;14.68;;;3.40;99.90;;;;;;5081630;28;20197;-64
2024/02/27 04:45:08;;;;;;;25.85;14.57;;;3.40;99.90;;;;;;5081379;28;20225;-64
2024/02/27 04:47:36;;;;;;;22.52;14.07;;;3.40;99.90;;;;;;5080757;28;20208;-66
2024/02/27 04:50:03;;;;;;;22.35;13.45;;;3.40;99.90;;;;;;5079082;28;20304;-64
2024/02/27 04:52:30;;;;;;;24.00;13.85;;;3.40;99.90;;;;;;5080332;28;20225;-64
2024/02/27 04:54:57;;;;;;;27.65;16.13;;;3.40;99.90;;;;;;5077154;28;20236;-64
2024/02/27 04:57:23;;;;;;;22.23;13.80;;;3.40;99.90;;;;;;5071568;28;20202;-63
2024/02/27 04:59:50;;;;;;;20.85;13.82;;;3.50;99.90;;;;;;5070959;28;20205;-66
2024/02/27 05:02:17;;;;;;;19.98;12.68;;;3.50;99.90;;;;;;5106911;22;20236;-63
2024/02/27 05:04:45;;;;;;;20.67;13.38;;;3.50;99.90;;;;;;5090888;28;20291;-62
2024/02/27 05:07:12;;;;;;;23.70;14.98;;;3.50;99.90;;;;;;5090862;28;20201;-63
2024/02/27 05:09:38;;;;;;;21.15;13.90;;;3.60;99.90;;;;;;5091022;28;20582;-62
2024/02/27 05:12:05;;;;;;;25.00;14.20;;;3.60;99.90;;;;;;5089991;28;20220;-61
2024/02/27 05:14:32;;;;;;;23.48;14.43;;;3.60;99.90;;;;;;5090787;28;20213;-62
2024/02/27 05:16:59;;;;;;;20.77;13.10;;;3.60;99.90;;;;;;5090318;28;20295;-63
2024/02/27 05:19:26;;;;;;;22.50;13.52;;;3.60;99.90;;;;;;5089864;28;20710;-62
2024/02/27 05:21:54;;;;;;;22.10;13.73;;;3.60;99.90;;;;;;5090342;28;20213;-62
2024/02/27 05:24:21;;;;;;;19.90;13.65;;;3.60;99.90;;;;;;5077921;28;20213;-62
2024/02/27 05:26:47;;;;;;;21.95;13.25;;;3.60;99.90;;;;;;5079998;28;20209;-63
2024/02/27 05:29:14;;;;;;;22.35;13.75;;;3.70;99.90;;;;;;5082659;28;20303;-62
2024/02/27 05:31:41;;;;;;;25.08;14.55;;;3.70;99.90;;;;;;5079165;28;20239;-63
2024/02/27 05:34:08;;;;;;;23.17;14.80;;;3.70;99.90;;;;;;5077724;28;20211;-62
2024/02/27 05:36:34;;;;;;;18.85;12.85;;;3.70;99.90;;;;;;5077239;28;20201;-63
2024/02/27 05:39:03;;;;;;;24.10;13.15;;;3.70;99.90;;;;;;5076498;28;20701;-62
2024/02/27 05:41:30;;;;;;;22.60;14.07;;;3.70;99.90;;;;;;5076699;28;20222;-62
2024/02/27 05:43:57;;;;;;;23.35;13.23;;;3.70;99.90;;;;;;5076109;28;20213;-63
2024/02/27 05:46:24;;;;;;;19.83;13.27;;;3.70;99.90;;;;;;5076059;28;20676;-62
2024/02/27 05:48:51;;;;;;;20.67;12.25;;;3.70;99.90;;;;;;5076049;28;20642;-62
2024/02/27 05:51:19;;;;;;;26.05;14.30;;;3.80;99.90;;;;;;5075592;28;20221;-63
2024/02/27 05:53:46;;;;;;;18.90;12.55;;;3.80;99.90;;;;;;5076036;28;20308;-62
2024/02/27 05:56:16;;;;;;;24.15;15.05;;;3.80;99.90;;;;;;5075972;28;20204;-61
2024/02/27 05:58:43;;;;;;;22.15;12.95;;;3.80;99.90;;;;;;5075585;28;20209;-63
2024/02/27 06:01:10;;;;;;;21.77;13.40;;;3.80;99.90;;;;;;5076214;28;20225;-62
2024/02/27 06:03:36;;;;;;;24.15;14.13;;;3.80;99.90;;;;;;5075847;28;20186;-63
2024/02/27 06:06:05;;;;;;;20.90;13.13;;;3.80;99.90;;;;;;5077330;28;20216;-62
2024/02/27 06:08:31;;;;;;;23.67;13.57;;;3.80;99.90;;;;;;5077009;28;20205;-63
2024/02/27 06:10:58;;;;;;;20.60;13.15;;;3.80;99.90;;;;;;5076176;28;20206;-62
2024/02/27 06:13:26;;;;;;;24.50;13.10;;;3.90;99.90;;;;;;5075090;28;20730;-63
2024/02/27 06:15:53;;;;;;;21.77;12.70;;;3.90;99.90;;;;;;5075561;28;20197;-63
2024/02/27 06:18:19;;;;;;;18.15;13.20;;;3.90;99.90;;;;;;5075279;28;20217;-62
2024/02/27 06:23:42;;;;;;;20.55;12.45;;;3.90;99.90;;;;;;4993992;28;20338;-62
2024/02/27 06:26:13;;;;;;;20.73;14.20;;;3.90;99.90;;;;;;5055351;28;20675;-63
2024/02/27 06:28:41;;;;;;;20.58;12.70;;;3.90;99.90;;;;;;5075179;28;20595;-63
2024/02/27 06:31:10;;;;;;;20.27;12.68;;;4.00;99.90;;;;;;5075138;28;20698;-63
2024/02/27 06:33:36;;;;;;;18.63;12.38;;;4.00;99.90;;;;;;5080748;28;20221;-64
2024/02/27 06:36:03;;;;;;;19.13;12.68;;;4.00;99.90;;;;;;5080988;28;20212;-63
2024/02/27 06:38:30;;;;;;;20.45;12.70;;;4.00;99.90;;;;;;5080700;28;20205;-62
2024/02/27 06:40:57;;;;;;;18.33;11.75;;;4.00;99.90;;;;;;5080828;28;20280;-64
2024/02/27 06:43:23;;;;;;;21.40;14.10;;;4.10;99.90;;;;;;5081089;28;20197;-63
2024/02/27 06:45:52;;;;;;;23.45;13.00;;;4.10;99.90;;;;;;5082728;28;20225;-63
2024/02/27 06:48:18;;;;;;;20.75;12.07;;;4.10;99.90;;;;;;5082760;28;20196;-62
2024/02/27 06:50:45;;;;;;;19.25;11.57;;;4.10;99.90;;;;;;5078136;28;20201;-63
2024/02/27 06:53:12;;;;;;;20.73;11.40;;;4.10;99.90;;;;;;5075893;28;20718;-63
2024/02/27 06:55:39;;;;;;;22.05;12.48;;;4.20;99.90;;;;;;5077506;28;20229;-64
2024/02/27 06:58:06;;;;;;;22.27;13.98;;;4.20;99.90;;;;;;5076597;28;20209;-63
2024/02/27 07:00:34;;;;;;;21.77;13.05;;;4.20;99.90;;;;;;5076974;28;20209;-63
2024/02/27 07:03:02;;;;;;;24.17;12.57;;;4.20;99.90;;;;;;5075295;28;20737;-63
2024/02/27 07:05:29;;;;;;;17.70;13.25;;;4.30;99.90;;;;;;5076333;28;20217;-62
2024/02/27 07:07:56;;;;;;;24.30;13.43;;;4.30;99.90;;;;;;5077768;28;20201;-62
2024/02/27 07:10:23;;;;;;;19.77;11.88;;;4.30;99.90;;;;;;5076619;28;20209;-64
2024/02/27 07:12:50;;;;;;;19.02;13.25;;;4.30;99.90;;;;;;5076140;28;20669;-62
2024/02/27 07:15:16;;;;;;;24.10;14.60;;;4.40;99.90;;;;;;5076848;28;20205;-62
2024/02/27 07:17:43;;;;;;;21.27;13.20;;;4.40;99.90;;;;;;5077590;28;20206;-62
2024/02/27 07:20:12;;;;;;;18.85;12.93;;;4.40;99.90;;;;;;5079505;28;20197;-62
2024/02/27 07:22:39;;;;;;;18.35;12.15;;;4.50;99.90;;;;;;5077956;28;20219;-61
2024/02/27 07:25:08;;;;;;;21.98;12.35;;;4.50;99.90;;;;;;5076071;28;20201;-63
2024/02/27 07:27:34;;;;;;;19.35;12.65;;;4.50;99.90;;;;;;5075386;28;20579;-64
2024/02/27 07:30:04;;;;;;;21.48;12.38;;;4.50;99.90;;;;;;5074957;28;20202;-61
2024/02/27 07:32:30;;;;;;;17.63;11.95;;;4.60;99.90;;;;;;5075799;28;20233;-62
2024/02/27 07:34:57;;;;;;;18.35;12.48;;;4.60;99.90;;;;;;5075943;28;20206;-64
2024/02/27 07:37:26;;;;;;;21.25;12.57;;;4.70;99.90;;;;;;5075784;28;20199;-60
2024/02/27 07:39:53;;;;;;;19.65;13.43;;;4.70;99.90;;;;;;5074761;28;20217;-63
2024/02/27 07:42:19;;;;;;;19.42;13.40;;;4.70;99.90;;;;;;5075397;28;20715;-63
2024/02/27 07:44:46;;;;;;;20.00;12.82;;;4.70;99.90;;;;;;5075892;28;20205;-63
2024/02/27 07:47:13;;;;;;;19.45;12.18;;;4.70;99.90;;;;;;5074998;28;20207;-63
2024/02/27 07:49:46;;;;;;;17.92;12.45;;;4.70;99.90;;;;;;5075312;28;20217;-60
2024/02/27 07:52:12;;;;;;;20.00;12.88;;;4.80;99.90;;;;;;5074777;28;20233;-62
2024/02/27 07:54:41;;;;;;;22.42;13.60;;;4.80;99.90;;;;;;5074947;28;20225;-64
2024/02/27 07:57:07;;;;;;;19.40;11.63;;;4.90;99.90;;;;;;5075069;28;20202;-63
2024/02/27 07:59:34;;;;;;;19.13;12.85;;;4.90;99.90;;;;;;5083828;28;20206;-63
2024/02/27 08:02:01;;;;;;;18.58;11.98;;;5.00;99.90;;;;;;5082743;28;20241;-62
2024/02/27 08:04:28;;;;;;;21.90;13.07;;;5.00;99.90;;;;;;5079185;28;20219;-62
2024/02/27 08:06:55;;;;;;;18.85;12.35;;;5.10;99.90;;;;;;5078423;28;20259;-62
2024/02/27 08:09:21;;;;;;;19.33;14.23;;;5.10;99.90;;;;;;5075592;28;20212;-61
2024/02/27 08:11:51;;;;;;;18.80;11.60;;;5.10;99.90;;;;;;5075243;28;20274;-62
2024/02/27 08:14:17;;;;;;;18.95;13.13;;;5.10;99.90;;;;;;5075402;28;20228;-60
2024/02/27 08:16:44;;;;;;;22.88;13.65;;;5.10;99.90;;;;;;5076841;28;20198;-60
2024/02/27 08:19:11;;;;;;;20.63;12.90;;;5.20;99.90;;;;;;5079297;28;20599;-62
2024/02/27 08:21:37;;;;;;;21.23;12.95;;;5.20;99.90;;;;;;5079090;28;20218;-59
2024/02/27 08:24:06;;;;;;;20.92;13.65;;;5.30;99.90;;;;;;5075989;28;20195;-61
2024/02/27 08:26:33;;;;;;;19.63;12.50;;;5.30;99.90;;;;;;5075122;28;20199;-62
2024/02/27 08:29:01;;;;;;;19.98;12.25;;;5.30;99.90;;;;;;5076244;28;20203;-62
2024/02/27 08:31:28;;;;;;;19.25;12.00;;;5.40;99.90;;;;;;5076255;28;20313;-62
2024/02/27 08:33:56;;;;;;;17.25;11.43;;;5.40;99.90;;;;;;5075711;28;20219;-61
2024/02/27 08:36:24;;;;;;;20.00;13.32;;;5.40;99.90;;;;;;5075225;28;20207;-61
2024/02/27 08:38:51;;;;;;;16.65;11.65;;;5.40;99.90;;;;;;5075754;28;20664;-61
2024/02/27 08:41:20;;;;;;;20.25;12.65;;;5.40;99.90;;;;;;5076335;28;20234;-61
2024/02/27 08:43:47;;;;;;;20.00;12.90;;;5.50;99.90;;;;;;5075755;28;20668;-60
2024/02/27 08:46:18;;;;;;;18.20;11.55;;;5.50;99.90;;;;;;5075925;28;20294;-63
2024/02/27 08:48:44;;;;;;;19.27;12.40;;;5.60;99.90;;;;;;5075079;28;20254;-60
2024/02/27 08:51:11;;;;;;;15.93;11.55;;;5.60;99.90;;;;;;5075891;28;20736;-61
2024/02/27 08:53:38;;;;;;;18.33;11.57;;;5.60;99.90;;;;;;5075479;28;20219;-61
2024/02/27 08:56:06;;;;;;;16.65;11.70;;;5.60;99.90;;;;;;5075338;28;20203;-61
2024/02/27 08:58:33;;;;;;;19.45;12.45;;;5.60;99.90;;;;;;5077380;28;20204;-60
2024/02/27 09:01:00;;;;;;;16.95;12.10;;;5.60;99.90;;;;;;5078264;28;20208;-61
2024/02/27 09:03:29;;;;;;;17.52;12.18;;;5.70;99.90;;;;;;5079015;28;20181;-62
2024/02/27 09:05:56;;;;;;;15.95;11.93;;;5.70;99.90;;;;;;5078577;28;20208;-61
2024/02/27 09:08:22;;;;;;;16.88;12.05;;;5.70;99.90;;;;;;5078577;28;20211;-61
2024/02/27 09:10:49;;;;;;;18.65;11.60;;;5.70;99.90;;;;;;5078423;28;20207;-62
2024/02/27 09:13:16;;;;;;;17.58;10.93;;;5.80;99.90;;;;;;5077498;28;20696;-62
2024/02/27 09:15:43;;;;;;;18.95;12.05;;;5.80;99.90;;;;;;5078217;28;20203;-61
2024/02/27 09:18:09;;;;;;;24.52;12.35;;;5.80;99.90;;;;;;5077819;28;20233;-61
2024/02/27 09:20:41;;;;;;;18.35;13.75;;;5.90;99.90;;;;;;5078089;28;20219;-61
2024/02/27 09:23:08;;;;;;;20.45;13.02;;;5.90;99.90;;;;;;5077789;28;20726;-60
2024/02/27 09:25:34;;;;;;;18.80;12.57;;;6.00;99.90;;;;;;5077321;28;20569;-62
2024/02/27 09:28:01;;;;;;;17.88;11.68;;;6.00;99.90;;;;;;5077708;28;20215;-62
2024/02/27 09:30:28;;;;;;;17.92;11.63;;;6.00;99.90;;;;;;5077867;28;20202;-62
2024/02/27 09:32:55;;;;;;;20.90;12.15;;;6.10;99.90;;;;;;5077820;28;20234;-62
2024/02/27 09:35:22;;;;;;;20.45;13.43;;;6.10;99.90;;;;;;5078561;28;20203;-63
2024/02/27 09:37:50;;;;;;;17.05;11.73;;;6.20;99.90;;;;;;5078547;28;20202;-63
2024/02/27 09:40:16;;;;;;;18.85;12.45;;;6.20;99.90;;;;;;5077837;28;20204;-63
2024/02/27 09:42:45;;;;;;;18.40;12.10;;;6.30;99.90;;;;;;5078036;28;20235;-62
2024/02/27 09:45:12;;;;;;;16.70;11.45;;;6.30;99.90;;;;;;5078107;28;20202;-61
2024/02/27 09:47:45;;;;;;;14.38;10.00;;;6.30;99.90;;;;;;5078586;28;20209;-62
2024/02/27 09:50:14;;;;;;;16.73;11.80;;;6.40;99.90;;;;;;5078510;28;20192;-62
2024/02/27 09:52:43;;;;;;;15.35;10.80;;;6.40;99.90;;;;;;5078562;28;20247;-64
2024/02/27 09:55:11;;;;;;;14.32;11.27;;;6.50;99.90;;;;;;5079648;28;20212;-62
2024/02/27 09:57:38;;;;;;;16.02;10.45;;;6.50;99.90;;;;;;5084747;28;20206;-61
2024/02/27 10:00:06;;;;;;;16.23;9.63;;;6.60;99.90;;;;;;5083299;28;20207;-62
2024/02/27 10:02:33;;;;;;;15.63;10.75;;;6.60;99.90;;;;;;5085039;28;20351;-61
2024/02/27 10:05:03;;;;;;;14.57;9.15;;;6.70;99.90;;;;;;5084579;28;20218;-62
2024/02/27 10:07:32;;;;;;;15.70;10.93;;;6.80;99.90;;;;;;5085232;28;20268;-62
2024/02/27 10:09:59;;;;;;;15.52;10.63;;;6.80;99.90;;;;;;5083164;28;20203;-62
2024/02/27 10:12:27;;;;;;;14.13;9.52;;;6.90;99.90;;;;;;5080630;28;20223;-62
2024/02/27 10:14:54;;;;;;;17.17;9.80;;;6.90;99.90;;;;;;5076686;28;20231;-62
2024/02/27 10:17:21;;;;;;;12.60;9.18;;;6.90;99.90;;;;;;5077303;28;20229;-61
2024/02/27 10:19:50;;;;;;;17.10;10.05;;;6.90;99.90;;;;;;5076782;28;20681;-62
2024/02/27 10:22:19;;;;;;;16.73;11.40;;;6.90;99.90;;;;;;5079984;28;20713;-62
2024/02/27 10:24:48;;;;;;;16.55;11.40;;;7.00;99.90;;;;;;5081216;28;20208;-62
2024/02/27 10:27:15;;;;;;;18.67;11.68;;;7.10;99.90;;;;;;5079092;28;20224;-62
2024/02/27 10:29:43;;;;;;;16.25;9.70;;;7.10;99.90;;;;;;5079673;28;20205;-62
2024/02/27 10:32:10;;;;;;;15.10;10.10;;;7.10;99.90;;;;;;5081319;28;20219;-62
2024/02/27 10:34:41;;;;;;;17.00;12.00;;;7.10;99.90;;;;;;5084016;28;20224;-61
2024/02/27 10:37:09;;;;;;;18.55;11.13;;;7.10;99.90;;;;;;5088947;28;20215;-62
2024/02/27 10:39:36;;;;;;;18.35;11.27;;;7.20;99.90;;;;;;5090380;28;20207;-62
2024/02/27 10:42:04;;;;;;;14.65;11.52;;;7.20;99.90;;;;;;5087165;28;20222;-62
2024/02/27 10:44:31;;;;;;;17.60;10.98;;;7.30;99.90;;;;;;5082006;28;20198;-62
2024/02/27 10:46:59;;;;;;;16.08;11.43;;;7.50;99.90;;;;;;5080417;28;20200;-62
2024/02/27 10:49:27;;;;;;;17.42;11.40;;;7.50;99.90;;;;;;5081232;28;20208;-61
2024/02/27 10:51:55;;;;;;;17.23;11.45;;;7.70;99.90;;;;;;5081570;28;20313;-62
2024/02/27 10:54:24;;;;;;;13.10;10.15;;;7.70;99.90;;;;;;5079552;28;20228;-61
2024/02/27 10:56:53;;;;;;;15.25;10.90;;;7.70;99.90;;;;;;5078067;28;20256;-62
2024/02/27 10:59:23;;;;;;;22.17;11.30;;;7.60;99.90;;;;;;5077285;28;20204;-63
2024/02/27 11:01:51;;;;;;;14.52;9.90;;;7.60;99.90;;;;;;5077495;28;20245;-61
2024/02/27 11:04:23;;;;;;;14.18;10.10;;;7.70;99.90;;;;;;5077335;28;20198;-63
2024/02/27 11:06:51;;;;;;;15.07;10.88;;;7.80;99.90;;;;;;5077105;28;20298;-62
2024/02/27 11:09:25;;;;;;;16.00;11.10;;;7.80;99.90;;;;;;5077600;28;20216;-62
2024/02/27 11:11:56;;;;;;;13.60;9.52;;;7.80;99.90;;;;;;5078125;28;20243;-62
2024/02/27 11:14:25;;;;;;;15.02;9.77;;;7.90;99.90;;;;;;5078911;28;20215;-62
2024/02/27 11:16:59;;;;;;;14.10;10.27;;;7.90;99.90;;;;;;5077522;28;20201;-62
2024/02/27 11:19:29;;;;;;;14.38;10.50;;;7.90;99.90;;;;;;5078627;28;20186;-62
2024/02/27 11:21:56;;;;;;;17.40;10.38;;;8.00;99.90;;;;;;5076557;28;20239;-62
2024/02/27 11:24:23;;;;;;;15.35;10.48;;;8.00;99.90;;;;;;5078316;28;20215;-62
2024/02/27 11:26:50;;;;;;;14.32;10.93;;;7.90;99.90;;;;;;5078279;28;20198;-62
2024/02/27 11:29:18;;;;;;;15.13;10.57;;;7.90;99.90;;;;;;5077160;28;20198;-62
2024/02/27 11:31:46;;;;;;;12.82;9.45;;;7.90;99.90;;;;;;5076521;28;20220;-62
2024/02/27 11:34:13;;;;;;;13.10;10.43;;;7.90;99.90;;;;;;5077481;28;20230;-62
2024/02/27 11:36:41;;;;;;;13.20;8.90;;;7.90;99.90;;;;;;5076656;28;20516;-62
2024/02/27 11:39:08;;;;;;;12.85;8.45;;;7.80;99.90;;;;;;5076822;28;20211;-62
2024/02/27 11:41:35;;;;;;;12.98;8.90;;;7.90;99.90;;;;;;5077276;28;20225;-62
2024/02/27 11:44:02;;;;;;;16.20;10.77;;;7.90;99.90;;;;;;5075861;28;20198;-62
2024/02/27 11:46:35;;;;;;;14.98;9.55;;;8.00;99.90;;;;;;5076604;28;20201;-61
2024/02/27 11:49:03;;;;;;;16.58;11.35;;;8.10;99.90;;;;;;5075909;28;20225;-62
2024/02/27 11:51:32;;;;;;;12.77;9.77;;;8.20;99.90;;;;;;5076571;28;20226;-63
2024/02/27 11:54:00;;;;;;;16.42;9.65;;;8.20;99.90;;;;;;5077158;28;20480;-62
2024/02/27 11:56:27;;;;;;;14.93;9.50;;;8.20;99.90;;;;;;5077957;28;20231;-63
2024/02/27 11:58:54;;;;;;;13.68;9.98;;;8.20;99.90;;;;;;5077487;28;20212;-63
2024/02/27 12:01:23;;;;;;;13.55;9.43;;;8.20;99.90;;;;;;5077405;28;20738;-62
2024/02/27 12:03:51;;;;;;;14.20;10.13;;;8.20;99.90;;;;;;5077620;28;20204;-62
2024/02/27 12:06:18;;;;;;;11.93;8.60;;;8.10;99.90;;;;;;5076862;28;20207;-62
2024/02/27 12:08:45;;;;;;;14.50;9.93;;;8.10;99.90;;;;;;5075513;28;20210;-62
2024/02/27 12:11:15;;;;;;;14.43;10.18;;;8.00;99.90;;;;;;5076142;28;20222;-63
2024/02/27 12:13:44;;;;;;;14.63;10.07;;;8.00;99.90;;;;;;5075713;28;20251;-63
2024/02/27 12:16:11;;;;;;;12.20;8.35;;;7.90;99.90;;;;;;5074950;28;20257;-61
2024/02/27 12:18:37;;;;;;;12.52;8.90;;;8.00;99.90;;;;;;5075275;28;20574;-62
2024/02/27 12:21:05;;;;;;;15.23;8.90;;;7.90;99.90;;;;;;5075159;28;20208;-62
2024/02/27 12:23:31;;;;;;;12.70;9.63;;;7.70;99.90;;;;;;5075364;28;20674;-61
2024/02/27 12:26:00;;;;;;;13.02;9.15;;;7.70;99.90;;;;;;5075612;28;20206;-63
2024/02/27 12:28:30;;;;;;;13.30;9.77;;;7.70;99.90;;;;;;5076081;28;20210;-62
2024/02/27 12:30:58;;;;;;;16.08;9.27;;;7.70;99.90;;;;;;5075295;28;20204;-60
2024/02/27 12:33:25;;;;;;;13.98;9.45;;;7.70;99.90;;;;;;5076176;28;20212;-63
2024/02/27 12:35:52;;;;;;;12.88;8.23;;;7.70;99.90;;;;;;5078901;28;20211;-62
2024/02/27 12:38:18;;;;;;;12.82;8.77;;;7.70;99.90;;;;;;5079735;28;20578;-62
2024/02/27 12:40:47;;;;;;;13.38;8.98;;;7.80;99.90;;;;;;5079484;28;20204;-62
2024/02/27 12:43:14;;;;;;;14.57;9.35;;;7.80;99.90;;;;;;5079880;28;20206;-62
2024/02/27 12:45:42;;;;;;;10.60;7.75;;;7.80;99.90;;;;;;5079291;28;20200;-61